Time;durP1;ratioP1;P1;durP2;ratioP2;P2;SDS_P1;SDS_P2;PMS_P1;PMS_P2;Temp;Humidity;BMP_temperature;BMP_pressure;BME280_temperature;BME280_humidity;BME280_pressure;Samples;Min_cycle;Max_cycle;Signal;HPM_P1;HPM_P2
2022/09/17 00:00:21;;;;;;;6.07;5.68;;;;;;;;;;5042408;28;20045;-60
2022/09/17 00:02:54;;;;;;;6.25;5.85;;;;;;;;;;5034299;28;20393;-60
2022/09/17 00:05:21;;;;;;;6.30;5.90;;;;;;;;;;5027228;28;20462;-60
2022/09/17 00:07:46;;;;;;;6.05;5.65;;;;;;;;;;5037109;28;20352;-60
2022/09/17 00:10:12;;;;;;;7.55;7.05;;;;;;;;;;5035692;28;20086;-60
2022/09/17 00:12:37;;;;;;;6.82;6.32;;;;;;;;;;5037755;28;20494;-60
2022/09/17 00:15:02;;;;;;;7.18;6.68;;;;;;;;;;5037588;28;20033;-60
2022/09/17 00:17:28;;;;;;;6.35;5.95;;;;;;;;;;5030820;28;20037;-60
2022/09/17 00:19:53;;;;;;;6.65;6.15;;;;;;;;;;5034722;28;20030;-60
2022/09/17 00:22:18;;;;;;;5.93;5.53;;;;;;;;;;5036581;28;20054;-60
2022/09/17 00:24:44;;;;;;;5.80;5.40;;;;;;;;;;5035378;28;20108;-60
2022/09/17 00:27:09;;;;;;;6.30;5.90;;;;;;;;;;5036154;28;20040;-60
2022/09/17 00:29:35;;;;;;;6.18;5.78;;;;;;;;;;5035913;28;20028;-60
2022/09/17 00:32:00;;;;;;;6.15;5.75;;;;;;;;;;5039948;28;20541;-59
2022/09/17 00:34:25;;;;;;;6.05;5.65;;;;;;;;;;5040532;28;20347;-60
2022/09/17 00:36:51;;;;;;;5.95;5.45;;;;;;;;;;5037996;28;20102;-60
2022/09/17 00:39:16;;;;;;;5.57;5.18;;;;;;;;;;5055719;28;20137;-60
2022/09/17 00:41:42;;;;;;;5.40;5.00;;;;;;;;;;5039645;28;20059;-60
2022/09/17 00:44:48;;;;;;;6.60;6.10;;;;;;;;;;5041592;28;20033;-60
2022/09/17 00:47:22;;;;;;;5.72;5.32;;;;;;;;;;5040333;28;20036;-60
2022/09/17 00:49:56;;;;;;;5.97;5.57;;;;;;;;;;5041909;28;20025;-60
2022/09/17 00:52:51;;;;;;;5.65;5.25;;;;;;;;;;5068056;28;20048;-60
2022/09/17 00:55:21;;;;;;;6.05;5.65;;;;;;;;;;5040497;28;20075;-59
2022/09/17 00:57:48;;;;;;;5.80;5.40;;;;;;;;;;5040084;28;20089;-59
2022/09/17 01:00:15;;;;;;;6.20;5.80;;;;;;;;;;5037172;28;20109;-60
2022/09/17 01:02:42;;;;;;;6.20;5.75;;;;;;;;;;5037745;28;20586;-60
2022/09/17 01:05:08;;;;;;;5.63;5.22;;;;;;;;;;5036912;28;20144;-60
2022/09/17 01:07:41;;;;;;;5.70;5.30;;;;;;;;;;5039544;28;20537;-60
2022/09/17 01:10:30;;;;;;;6.03;5.63;;;;;;;;;;5038581;28;20038;-60
2022/09/17 01:13:30;;;;;;;6.30;5.90;;;;;;;;;;5038627;28;20103;-60
2022/09/17 01:16:10;;;;;;;5.80;5.40;;;;;;;;;;5040890;28;20025;-60
2022/09/17 01:18:44;;;;;;;6.05;5.65;;;;;;;;;;5039099;28;20498;-60
2022/09/17 01:21:39;;;;;;;6.13;5.53;;;;;;;;;;5037716;28;20071;-60
2022/09/17 01:24:21;;;;;;;6.20;5.80;;;;;;;;;;5038126;28;20068;-60
2022/09/17 01:27:05;;;;;;;6.32;5.93;;;;;;;;;;5034434;28;20029;-59
2022/09/17 01:29:55;;;;;;;5.68;5.28;;;;;;;;;;5038381;28;20035;-60
2022/09/17 01:32:44;;;;;;;5.85;5.45;;;;;;;;;;5036990;28;20231;-60
2022/09/17 01:35:20;;;;;;;5.93;5.53;;;;;;;;;;5039859;28;20120;-59
2022/09/17 01:37:56;;;;;;;6.15;5.75;;;;;;;;;;5069398;28;20546;-59
2022/09/17 01:40:32;;;;;;;6.18;5.78;;;;;;;;;;5037594;28;20090;-59
2022/09/17 01:43:26;;;;;;;6.47;6.05;;;;;;;;;;5036446;28;20028;-59
2022/09/17 01:46:00;;;;;;;5.88;5.47;;;;;;;;;;5034941;28;20036;-60
2022/09/17 01:48:31;;;;;;;6.00;5.60;;;;;;;;;;5035528;28;20024;-59
2022/09/17 01:51:05;;;;;;;6.80;6.30;;;;;;;;;;5038897;28;20087;-60
2022/09/17 01:53:37;;;;;;;6.10;5.70;;;;;;;;;;5040063;28;20454;-59
2022/09/17 01:56:03;;;;;;;6.40;5.97;;;;;;;;;;5037659;28;20037;-60
2022/09/17 01:58:34;;;;;;;6.03;5.63;;;;;;;;;;5036090;28;20101;-59
2022/09/17 02:01:04;;;;;;;;;;;;;;;;;;5037807;28;20056;-59
2022/09/17 02:03:36;;;;;;;6.10;5.70;;;;;;;;;;5034280;28;20338;-60
2022/09/17 02:06:10;;;;;;;6.40;5.90;;;;;;;;;;5038267;28;20037;-60
2022/09/17 02:08:44;;;;;;;6.43;6.03;;;;;;;;;;5037971;28;20029;-59
2022/09/17 02:11:16;;;;;;;6.90;6.40;;;;;;;;;;5035402;28;20036;-59
2022/09/17 02:14:02;;;;;;;6.18;5.78;;;;;;;;;;5036525;28;20029;-59
2022/09/17 02:16:32;;;;;;;6.30;5.90;;;;;;;;;;5036561;28;20048;-60
2022/09/17 02:19:05;;;;;;;6.43;5.93;;;;;;;;;;5037373;28;20045;-59
2022/09/17 02:21:38;;;;;;;7.22;6.55;;;;;;;;;;5035607;28;20040;-59
2022/09/17 02:24:16;;;;;;;6.38;5.97;;;;;;;;;;5038390;28;20033;-59
2022/09/17 02:26:47;;;;;;;6.13;5.72;;;;;;;;;;5034164;28;20113;-59
2022/09/17 02:29:23;;;;;;;5.72;5.32;;;;;;;;;;5037950;28;20441;-59
2022/09/17 02:31:48;;;;;;;6.35;5.93;;;;;;;;;;5034216;28;20036;-60
2022/09/17 02:34:14;;;;;;;6.70;6.20;;;;;;;;;;5037651;28;20033;-59
2022/09/17 02:36:39;;;;;;;6.97;6.47;;;;;;;;;;5034083;28;20036;-59
2022/09/17 02:39:05;;;;;;;6.25;5.65;;;;;;;;;;5037154;28;20459;-59
2022/09/17 02:41:45;;;;;;;6.68;6.18;;;;;;;;;;5037500;28;20355;-59
2022/09/17 02:44:23;;;;;;;8.38;7.72;;;;;;;;;;5036094;28;20049;-59
2022/09/17 02:47:07;;;;;;;6.53;6.10;;;;;;;;;;5035624;28;20029;-59
2022/09/17 02:49:55;;;;;;;6.22;5.82;;;;;;;;;;5036231;28;20029;-59
2022/09/17 02:52:51;;;;;;;7.50;6.28;;;;;;;;;;5038618;28;20039;-59
2022/09/17 02:55:24;;;;;;;6.10;5.70;;;;;;;;;;5035541;28;20037;-60
2022/09/17 02:57:59;;;;;;;6.55;6.05;;;;;;;;;;5035147;28;20087;-59
2022/09/17 03:00:27;;;;;;;6.05;5.65;;;;;;;;;;5036131;28;20037;-59
2022/09/17 03:03:04;;;;;;;6.65;6.15;;;;;;;;;;5037218;28;20037;-59
2022/09/17 03:05:30;;;;;;;6.43;6.03;;;;;;;;;;5038025;28;20034;-59
2022/09/17 03:07:58;;;;;;;6.78;6.28;;;;;;;;;;5036881;28;20033;-59
2022/09/17 03:10:23;;;;;;;6.47;5.97;;;;;;;;;;5035910;28;20052;-60
2022/09/17 03:12:52;;;;;;;7.45;6.95;;;;;;;;;;5033309;28;20037;-60
2022/09/17 03:15:17;;;;;;;6.95;6.45;;;;;;;;;;5035717;28;20071;-60
2022/09/17 03:17:43;;;;;;;7.28;6.78;;;;;;;;;;5037830;28;20475;-60
2022/09/17 03:20:08;;;;;;;7.90;7.10;;;;;;;;;;5035927;28;20035;-60
2022/09/17 03:22:34;;;;;;;7.40;6.90;;;;;;;;;;5036806;28;20028;-59
2022/09/17 03:24:59;;;;;;;7.78;7.28;;;;;;;;;;5036691;28;20102;-60
2022/09/17 03:27:25;;;;;;;7.43;6.93;;;;;;;;;;5066479;28;20021;-60
2022/09/17 03:29:50;;;;;;;7.13;6.63;;;;;;;;;;5033304;28;20041;-60
2022/09/17 03:32:16;;;;;;;7.70;7.20;;;;;;;;;;5034254;28;20037;-60
2022/09/17 03:34:41;;;;;;;7.45;6.95;;;;;;;;;;5033343;28;20056;-60
2022/09/17 03:37:06;;;;;;;8.57;7.97;;;;;;;;;;5033988;28;20026;-60
2022/09/17 03:39:32;;;;;;;7.28;6.78;;;;;;;;;;5034538;28;20029;-60
2022/09/17 03:41:57;;;;;;;8.30;7.80;;;;;;;;;;5034959;28;20098;-60
2022/09/17 03:44:22;;;;;;;9.75;8.88;;;;;;;;;;5036304;28;20021;-60
2022/09/17 03:46:48;;;;;;;8.35;7.82;;;;;;;;;;5033276;28;20473;-60
2022/09/17 03:49:14;;;;;;;7.90;7.40;;;;;;;;;;5030265;28;20037;-61
2022/09/17 03:51:39;;;;;;;7.63;7.13;;;;;;;;;;5035046;28;20041;-60
2022/09/17 03:54:06;;;;;;;8.80;8.23;;;;;;;;;;5042598;28;20037;-61
2022/09/17 03:56:31;;;;;;;8.23;7.72;;;;;;;;;;5032777;28;20622;-61
2022/09/17 03:59:00;;;;;;;7.88;7.38;;;;;;;;;;5033131;28;20056;-61
2022/09/17 04:01:27;;;;;;;8.02;7.53;;;;;;;;;;5035078;28;20048;-61
2022/09/17 04:03:52;;;;;;;8.82;8.23;;;;;;;;;;5035006;28;20478;-61
2022/09/17 04:06:18;;;;;;;8.80;8.20;;;;;;;;;;5038297;28;20020;-61
2022/09/17 04:08:43;;;;;;;9.48;8.88;;;;;;;;;;5055624;28;20040;-61
2022/09/17 04:11:09;;;;;;;8.70;8.10;;;;;;;;;;5038787;28;20025;-61
2022/09/17 04:13:34;;;;;;;8.65;8.05;;;;;;;;;;5035970;28;20026;-61
2022/09/17 04:16:00;;;;;;;8.55;8.05;;;;;;;;;;5036654;28;20476;-62
2022/09/17 04:18:25;;;;;;;9.43;8.82;;;;;;;;;;5037687;28;20029;-62
2022/09/17 04:20:52;;;;;;;8.80;8.23;;;;;;;;;;5037506;28;20044;-62
2022/09/17 04:23:17;;;;;;;8.77;8.02;;;;;;;;;;5039468;28;20067;-62
2022/09/17 04:25:43;;;;;;;9.45;8.85;;;;;;;;;;5038650;28;20056;-63
2022/09/17 04:28:08;;;;;;;11.77;9.02;;;;;;;;;;5040749;28;20260;-62
2022/09/17 04:30:34;;;;;;;9.50;8.90;;;;;;;;;;5038936;28;20024;-62
2022/09/17 04:32:59;;;;;;;9.30;8.70;;;;;;;;;;5035617;28;20391;-62
2022/09/17 04:35:25;;;;;;;9.40;8.80;;;;;;;;;;5036638;28;20036;-63
2022/09/17 04:37:55;;;;;;;13.73;8.73;;;;;;;;;;5036488;28;20422;-63
2022/09/17 04:40:21;;;;;;;10.57;9.95;;;;;;;;;;5034455;28;20539;-62
2022/09/17 04:42:47;;;;;;;10.15;9.55;;;;;;;;;;5037760;28;20029;-62
2022/09/17 04:45:12;;;;;;;10.73;10.10;;;;;;;;;;5035306;28;20128;-62
2022/09/17 04:47:38;;;;;;;10.90;10.20;;;;;;;;;;5035767;28;20451;-62
2022/09/17 04:50:04;;;;;;;11.30;10.57;;;;;;;;;;5036566;28;20029;-63
2022/09/17 04:52:29;;;;;;;11.60;10.57;;;;;;;;;;5038954;28;20042;-62
2022/09/17 04:54:55;;;;;;;11.52;10.73;;;;;;;;;;5041094;28;20021;-62
2022/09/17 04:57:22;;;;;;;11.85;11.15;;;;;;;;;;5062920;28;20047;-62
2022/09/17 04:59:47;;;;;;;13.35;12.55;;;;;;;;;;5042187;28;20124;-62
2022/09/17 05:02:13;;;;;;;15.23;14.32;;;;;;;;;;5037955;28;20116;-62
2022/09/17 05:04:38;;;;;;;14.68;13.88;;;;;;;;;;5036836;28;20021;-62
2022/09/17 05:07:04;;;;;;;14.32;13.43;;;;;;;;;;5039157;28;20336;-62
2022/09/17 05:09:29;;;;;;;14.30;13.50;;;;;;;;;;5037381;28;20374;-62
2022/09/17 05:11:54;;;;;;;15.48;14.60;;;;;;;;;;5039905;28;20478;-62
2022/09/17 05:14:20;;;;;;;17.00;16.00;;;;;;;;;;5038461;28;20037;-62
2022/09/17 05:16:45;;;;;;;15.52;14.63;;;;;;;;;;5036906;28;20041;-62
2022/09/17 05:19:11;;;;;;;15.40;14.50;;;;;;;;;;5037863;28;20108;-63
2022/09/17 05:21:36;;;;;;;15.75;14.88;;;;;;;;;;5036144;28;20140;-62
2022/09/17 05:24:02;;;;;;;15.43;14.52;;;;;;;;;;5037626;28;20029;-64
2022/09/17 05:26:28;;;;;;;17.35;16.35;;;;;;;;;;5035931;28;20032;-63
2022/09/17 05:28:53;;;;;;;15.32;14.45;;;;;;;;;;5035704;28;20228;-62
2022/09/17 05:31:19;;;;;;;16.27;15.38;;;;;;;;;;5036640;28;20143;-62
2022/09/17 05:33:44;;;;;;;15.82;14.93;;;;;;;;;;5033790;28;20079;-62
2022/09/17 05:36:10;;;;;;;16.83;15.93;;;;;;;;;;5037938;28;20045;-62
2022/09/17 05:38:35;;;;;;;18.05;17.05;;;;;;;;;;5036046;28;20040;-63
2022/09/17 05:41:06;;;;;;;16.27;15.38;;;;;;;;;;5034332;28;20029;-62
2022/09/17 05:43:32;;;;;;;16.30;15.32;;;;;;;;;;5041095;28;20329;-63
2022/09/17 05:46:02;;;;;;;16.17;15.27;;;;;;;;;;5036659;28;20103;-63
2022/09/17 05:48:27;;;;;;;17.77;16.77;;;;;;;;;;5036214;28;20056;-62
2022/09/17 05:50:54;;;;;;;16.52;15.63;;;;;;;;;;5038274;28;20067;-62
2022/09/17 05:53:19;;;;;;;18.27;17.25;;;;;;;;;;5035903;28;20128;-62
2022/09/17 05:55:44;;;;;;;19.02;17.98;;;;;;;;;;5035620;28;20120;-63
2022/09/17 05:58:15;;;;;;;16.67;15.75;;;;;;;;;;5036094;28;20033;-66
2022/09/17 06:00:41;;;;;;;;;;;;;;;;;;5037831;28;20052;-66
2022/09/17 06:03:09;;;;;;;13.05;12.27;;;;;;;;;;5038566;28;19963;-65
2022/09/17 06:05:34;;;;;;;13.50;12.73;;;;;;;;;;5035967;28;20030;-66
2022/09/17 06:08:00;;;;;;;14.93;14.07;;;;;;;;;;5036304;28;20475;-66
2022/09/17 06:10:25;;;;;;;15.30;14.45;;;;;;;;;;5036905;28;20474;-65
2022/09/17 06:13:00;;;;;;;15.60;14.73;;;;;;;;;;5039730;28;20025;-65
2022/09/17 06:15:26;;;;;;;15.85;14.95;;;;;;;;;;5041769;28;20056;-65
2022/09/17 06:17:51;;;;;;;18.25;15.25;;;;;;;;;;5036423;28;20021;-65
2022/09/17 06:20:18;;;;;;;15.98;15.07;;;;;;;;;;5034952;28;20040;-64
2022/09/17 06:22:43;;;;;;;14.35;13.55;;;;;;;;;;5037172;28;20063;-65
2022/09/17 06:25:08;;;;;;;12.10;11.40;;;;;;;;;;5034978;28;20470;-65
2022/09/17 06:27:34;;;;;;;11.90;11.20;;;;;;;;;;5035899;28;20033;-63
2022/09/17 06:29:59;;;;;;;14.00;13.20;;;;;;;;;;5042640;28;20033;-65
2022/09/17 06:32:25;;;;;;;11.60;10.90;;;;;;;;;;5039630;28;20062;-66
2022/09/17 06:34:51;;;;;;;12.57;11.85;;;;;;;;;;5064891;28;20061;-65
2022/09/17 06:37:16;;;;;;;12.80;12.00;;;;;;;;;;5038284;28;20518;-66
2022/09/17 06:39:42;;;;;;;13.05;12.20;;;;;;;;;;5036254;28;20091;-65
2022/09/17 06:42:07;;;;;;;14.70;13.80;;;;;;;;;;5034081;28;20033;-65
2022/09/17 06:44:33;;;;;;;14.80;13.85;;;;;;;;;;5039437;28;20309;-64
2022/09/17 06:46:58;;;;;;;13.05;12.25;;;;;;;;;;5035365;28;20032;-65
2022/09/17 06:49:24;;;;;;;12.63;11.93;;;;;;;;;;5039599;28;20029;-65
2022/09/17 06:51:49;;;;;;;13.23;12.43;;;;;;;;;;5035299;28;20044;-65
2022/09/17 06:54:14;;;;;;;11.65;10.95;;;;;;;;;;5037155;28;20040;-65
2022/09/17 06:56:40;;;;;;;9.95;9.35;;;;;;;;;;5036083;28;20021;-65
2022/09/17 06:59:05;;;;;;;11.98;11.20;;;;;;;;;;5035294;28;20044;-62
2022/09/17 07:01:31;;;;;;;12.65;11.63;;;;;;;;;;5034005;28;20026;-62
2022/09/17 07:03:57;;;;;;;12.75;12.00;;;;;;;;;;5037252;28;20039;-63
2022/09/17 07:06:22;;;;;;;11.93;11.23;;;;;;;;;;5038689;28;20021;-63
2022/09/17 07:08:48;;;;;;;11.32;10.63;;;;;;;;;;5035371;28;20148;-62
2022/09/17 07:11:14;;;;;;;12.93;12.02;;;;;;;;;;5067740;28;20063;-62
2022/09/17 07:13:40;;;;;;;12.20;10.43;;;;;;;;;;5067839;28;20021;-62
2022/09/17 07:16:06;;;;;;;11.82;11.13;;;;;;;;;;5035069;28;20030;-61
2022/09/17 07:18:32;;;;;;;12.10;11.30;;;;;;;;;;5025087;28;20037;-62
2022/09/17 07:20:59;;;;;;;7.13;6.63;;;;;;;;;;5033339;28;20479;-62
2022/09/17 07:23:30;;;;;;;6.57;6.07;;;;;;;;;;5037166;28;20083;-61
2022/09/17 07:25:57;;;;;;;;;;;;;;;;;;5038265;28;20024;-61
2022/09/17 07:28:23;;;;;;;5.85;5.45;;;;;;;;;;5033106;28;20376;-61
2022/09/17 07:30:50;;;;;;;5.50;5.10;;;;;;;;;;5032017;28;20029;-61
2022/09/17 07:33:17;;;;;;;5.93;5.53;;;;;;;;;;5032476;28;20033;-61
2022/09/17 07:35:54;;;;;;;6.00;5.60;;;;;;;;;;5034791;28;20041;-60
2022/09/17 07:38:21;;;;;;;5.85;5.45;;;;;;;;;;5033431;28;20043;-60
2022/09/17 07:41:04;;;;;;;6.35;5.85;;;;;;;;;;5035189;28;20391;-61
2022/09/17 07:43:31;;;;;;;6.30;5.70;;;;;;;;;;5036708;28;20055;-60
2022/09/17 07:45:58;;;;;;;5.65;5.25;;;;;;;;;;5033803;28;20123;-60
2022/09/17 07:48:24;;;;;;;6.20;5.70;;;;;;;;;;5033601;28;20040;-61
2022/09/17 07:50:50;;;;;;;6.03;5.53;;;;;;;;;;5038174;28;20034;-60
2022/09/17 07:53:15;;;;;;;5.90;5.50;;;;;;;;;;5035914;28;20103;-60
2022/09/17 07:55:41;;;;;;;6.70;6.15;;;;;;;;;;5035116;28;20470;-60
2022/09/17 07:58:06;;;;;;;6.38;5.97;;;;;;;;;;5035779;28;20370;-60
2022/09/17 08:00:32;;;;;;;11.68;6.45;;;;;;;;;;5036210;28;20417;-60
2022/09/17 08:02:58;;;;;;;6.47;6.03;;;;;;;;;;5035673;28;20033;-60
2022/09/17 08:05:24;;;;;;;7.10;6.50;;;;;;;;;;5036169;28;20025;-60
2022/09/17 08:07:53;;;;;;;7.05;6.53;;;;;;;;;;5035334;28;20107;-60
2022/09/17 08:10:21;;;;;;;5.57;5.18;;;;;;;;;;5050195;28;20453;-60
2022/09/17 08:12:54;;;;;;;6.00;5.40;;;;;;;;;;5033117;28;20025;-60
2022/09/17 08:15:20;;;;;;;5.38;4.97;;;;;;;;;;5031822;28;20037;-59
2022/09/17 08:17:46;;;;;;;5.88;5.45;;;;;;;;;;5031845;28;20047;-59
2022/09/17 08:20:13;;;;;;;6.25;5.80;;;;;;;;;;5031244;28;20029;-60
2022/09/17 08:22:38;;;;;;;6.32;5.72;;;;;;;;;;5033322;28;20029;-59
2022/09/17 08:25:08;;;;;;;7.72;5.28;;;;;;;;;;5033262;28;20403;-59
2022/09/17 08:27:34;;;;;;;5.83;5.43;;;;;;;;;;5036967;28;20367;-59
2022/09/17 08:30:00;;;;;;;6.28;5.78;;;;;;;;;;5031682;28;20033;-59
2022/09/17 08:32:27;;;;;;;5.53;5.13;;;;;;;;;;5033207;28;20530;-59
2022/09/17 08:34:53;;;;;;;5.70;5.20;;;;;;;;;;5034524;28;20605;-59
2022/09/17 08:37:19;;;;;;;5.97;5.57;;;;;;;;;;5035433;28;20039;-59
2022/09/17 08:39:44;;;;;;;6.35;5.90;;;;;;;;;;5034967;28;20082;-59
2022/09/17 08:42:18;;;;;;;5.85;5.45;;;;;;;;;;5034405;28;20033;-59
2022/09/17 08:44:46;;;;;;;5.60;5.20;;;;;;;;;;5035156;28;20033;-59
2022/09/17 08:47:18;;;;;;;5.53;5.13;;;;;;;;;;5033312;28;20029;-59
2022/09/17 08:49:52;;;;;;;5.57;5.18;;;;;;;;;;5035494;28;20043;-59
2022/09/17 08:52:54;;;;;;;6.07;5.57;;;;;;;;;;5039714;28;20397;-60
2022/09/17 08:55:30;;;;;;;6.80;6.25;;;;;;;;;;5037410;28;20421;-59
2022/09/17 08:58:34;;;;;;;6.85;6.22;;;;;;;;;;5035287;28;20029;-59
2022/09/17 09:01:16;;;;;;;5.90;5.50;;;;;;;;;;5011618;28;20045;-59
2022/09/17 09:04:23;;;;;;;6.65;6.18;;;;;;;;;;5039919;28;20067;-59
2022/09/17 09:06:54;;;;;;;7.60;7.10;;;;;;;;;;5035099;28;20037;-59
2022/09/17 09:09:24;;;;;;;7.00;6.50;;;;;;;;;;5039346;28;20028;-59
2022/09/17 09:11:59;;;;;;;6.90;6.40;;;;;;;;;;5038020;28;20021;-59
2022/09/17 09:14:29;;;;;;;7.68;7.18;;;;;;;;;;5041229;28;20120;-62
2022/09/17 09:16:55;;;;;;;7.10;6.60;;;;;;;;;;5039050;28;20609;-59
2022/09/17 09:19:28;;;;;;;9.27;6.47;;;;;;;;;;5037774;28;20036;-59
2022/09/17 09:22:11;;;;;;;7.03;6.43;;;;;;;;;;5037967;28;20083;-59
2022/09/17 09:24:49;;;;;;;6.25;5.85;;;;;;;;;;5038476;28;20071;-59
2022/09/17 09:27:17;;;;;;;6.63;6.13;;;;;;;;;;5036157;28;20025;-59
2022/09/17 09:30:22;;;;;;;5.88;5.47;;;;;;;;;;5038275;28;20029;-59
2022/09/17 09:32:56;;;;;;;6.93;6.38;;;;;;;;;;5039370;28;20029;-64
2022/09/17 09:35:27;;;;;;;5.78;5.38;;;;;;;;;;5037588;28;20025;-65
2022/09/17 09:38:08;;;;;;;7.28;6.68;;;;;;;;;;5037248;28;20497;-65
2022/09/17 09:40:57;;;;;;;6.60;6.13;;;;;;;;;;5037220;28;20501;-65
2022/09/17 09:43:27;;;;;;;6.82;6.32;;;;;;;;;;5039723;28;20421;-65
2022/09/17 09:46:04;;;;;;;6.27;5.87;;;;;;;;;;5038511;28;20439;-65
2022/09/17 09:49:04;;;;;;;5.82;5.40;;;;;;;;;;5037068;28;20055;-65
2022/09/17 09:51:46;;;;;;;5.60;5.20;;;;;;;;;;5037800;28;20110;-65
2022/09/17 09:54:42;;;;;;;6.45;5.95;;;;;;;;;;5037334;28;20051;-66
2022/09/17 09:57:12;;;;;;;5.72;5.32;;;;;;;;;;5013690;28;20041;-64
2022/09/17 09:59:40;;;;;;;6.43;5.93;;;;;;;;;;5039861;28;20033;-64
2022/09/17 10:02:06;;;;;;;5.40;5.00;;;;;;;;;;5035496;28;20383;-65
2022/09/17 10:04:31;;;;;;;5.70;5.30;;;;;;;;;;5035893;28;20112;-66
2022/09/17 10:07:07;;;;;;;6.22;5.82;;;;;;;;;;5036018;28;20025;-68
2022/09/17 10:09:35;;;;;;;5.78;5.38;;;;;;;;;;5027520;28;20056;-66
2022/09/17 10:12:03;;;;;;;6.25;5.85;;;;;;;;;;5070282;28;20090;-65
2022/09/17 10:14:33;;;;;;;7.70;7.05;;;;;;;;;;5037216;28;20033;-66
2022/09/17 10:17:24;;;;;;;8.05;7.55;;;;;;;;;;5040168;28;20111;-67
2022/09/17 10:20:06;;;;;;;7.68;7.18;;;;;;;;;;5039044;28;20036;-67
2022/09/17 10:22:37;;;;;;;10.13;9.45;;;;;;;;;;5041440;28;20117;-67
2022/09/17 10:25:16;;;;;;;10.65;9.80;;;;;;;;;;5035270;28;20029;-66
2022/09/17 10:27:44;;;;;;;10.07;9.48;;;;;;;;;;5036401;28;20030;-67
2022/09/17 10:30:10;;;;;;;9.57;8.98;;;;;;;;;;5039367;28;20048;-66
2022/09/17 10:32:35;;;;;;;9.20;8.60;;;;;;;;;;5034211;28;20367;-63
2022/09/17 10:35:06;;;;;;;9.45;8.77;;;;;;;;;;5040232;28;20053;-64
2022/09/17 10:37:52;;;;;;;8.95;8.35;;;;;;;;;;5037718;28;20024;-66
2022/09/17 10:40:17;;;;;;;9.00;8.40;;;;;;;;;;5038214;28;20373;-63
2022/09/17 10:42:48;;;;;;;9.10;8.50;;;;;;;;;;5039127;28;20076;-63
2022/09/17 10:45:25;;;;;;;9.30;8.70;;;;;;;;;;5040522;28;20043;-65
2022/09/17 10:47:52;;;;;;;9.60;9.00;;;;;;;;;;5043422;28;20047;-63
2022/09/17 10:50:20;;;;;;;7.97;7.43;;;;;;;;;;5059240;28;20311;-64
2022/09/17 10:52:51;;;;;;;7.05;6.55;;;;;;;;;;5039616;28;20024;-66
2022/09/17 10:55:44;;;;;;;7.82;7.05;;;;;;;;;;5038019;28;20154;-63
2022/09/17 10:58:13;;;;;;;7.38;6.88;;;;;;;;;;5041722;28;20211;-62
2022/09/17 11:00:57;;;;;;;8.95;7.72;;;;;;;;;;5037521;28;20029;-63
2022/09/17 11:03:58;;;;;;;6.10;5.70;;;;;;;;;;5031911;28;20029;-63
2022/09/17 11:06:42;;;;;;;6.72;6.22;;;;;;;;;;5037621;28;20021;-64
2022/09/17 11:09:38;;;;;;;6.22;5.82;;;;;;;;;;5034484;28;20450;-63
2022/09/17 11:12:24;;;;;;;6.05;5.65;;;;;;;;;;5038138;28;20113;-64
2022/09/17 11:15:02;;;;;;;6.35;5.95;;;;;;;;;;5041426;28;20056;-65
2022/09/17 11:17:48;;;;;;;5.50;5.10;;;;;;;;;;5037057;28;20087;-63
2022/09/17 11:20:35;;;;;;;6.40;6.00;;;;;;;;;;5035444;28;20374;-64
2022/09/17 11:23:15;;;;;;;6.60;6.10;;;;;;;;;;5039978;28;20028;-64
2022/09/17 11:25:46;;;;;;;5.90;5.50;;;;;;;;;;5033916;28;20096;-64
2022/09/17 11:28:43;;;;;;;5.97;5.57;;;;;;;;;;5036612;28;20044;-65
2022/09/17 11:31:37;;;;;;;5.90;5.50;;;;;;;;;;5038783;28;20112;-63
2022/09/17 11:34:20;;;;;;;6.45;5.95;;;;;;;;;;5035682;28;20099;-63
2022/09/17 11:37:13;;;;;;;5.82;5.43;;;;;;;;;;5054873;28;20594;-64
2022/09/17 11:39:43;;;;;;;5.70;5.30;;;;;;;;;;5068335;28;20029;-65
2022/09/17 11:42:19;;;;;;;6.18;5.75;;;;;;;;;;5037152;28;20395;-64
2022/09/17 11:44:53;;;;;;;5.60;5.20;;;;;;;;;;5036173;28;20559;-62
2022/09/17 11:47:24;;;;;;;5.50;5.10;;;;;;;;;;5036987;28;20021;-62
2022/09/17 11:49:52;;;;;;;5.20;4.80;;;;;;;;;;5033026;28;20043;-61
2022/09/17 11:52:23;;;;;;;5.60;5.20;;;;;;;;;;5033708;28;20051;-62
2022/09/17 11:55:01;;;;;;;5.85;5.45;;;;;;;;;;5034610;28;20378;-62
2022/09/17 11:57:32;;;;;;;5.97;5.57;;;;;;;;;;5038630;28;20091;-62
2022/09/17 12:00:14;;;;;;;5.50;5.10;;;;;;;;;;5037900;28;20028;-63
2022/09/17 12:02:49;;;;;;;5.53;5.13;;;;;;;;;;5033938;28;20029;-63
2022/09/17 12:05:22;;;;;;;9.23;7.28;;;;;;;;;;5036025;28;20422;-63
2022/09/17 12:07:54;;;;;;;8.80;8.23;;;;;;;;;;5031313;28;20041;-63
2022/09/17 12:10:48;;;;;;;8.30;7.68;;;;;;;;;;5034203;28;20043;-63
2022/09/17 12:13:29;;;;;;;7.97;7.47;;;;;;;;;;5035918;28;20048;-62
2022/09/17 12:16:16;;;;;;;8.05;7.55;;;;;;;;;;5037212;28;20036;-63
2022/09/17 12:19:06;;;;;;;8.43;7.93;;;;;;;;;;5034162;28;20032;-63
2022/09/17 12:21:41;;;;;;;10.00;9.40;;;;;;;;;;5035530;28;20462;-63
2022/09/17 12:24:17;;;;;;;10.52;9.82;;;;;;;;;;5037460;28;20122;-63
2022/09/17 12:27:03;;;;;;;10.27;9.68;;;;;;;;;;5039509;28;20025;-63
2022/09/17 12:29:28;;;;;;;12.35;11.65;;;;;;;;;;5038268;28;20033;-63
2022/09/17 12:32:32;;;;;;;12.60;11.80;;;;;;;;;;5039625;28;20079;-63
2022/09/17 12:35:16;;;;;;;6.80;6.30;;;;;;;;;;4974870;28;20041;-64
2022/09/17 12:38:15;;;;;;;9.75;9.15;;;;;;;;;;5037448;28;20109;-63
2022/09/17 12:40:47;;;;;;;12.18;11.32;;;;;;;;;;5035703;28;20056;-63
2022/09/17 12:43:42;;;;;;;11.45;10.75;;;;;;;;;;5035270;28;20111;-64
2022/09/17 12:46:23;;;;;;;9.82;9.23;;;;;;;;;;5039470;28;20029;-63
2022/09/17 12:49:13;;;;;;;10.00;9.40;;;;;;;;;;5039744;28;20033;-64
2022/09/17 12:52:00;;;;;;;10.50;9.90;;;;;;;;;;5039437;28;20057;-64
2022/09/17 12:54:40;;;;;;;11.15;10.45;;;;;;;;;;5039871;28;20329;-64
2022/09/17 12:57:27;;;;;;;11.02;10.23;;;;;;;;;;5037240;28;20025;-64
2022/09/17 13:00:02;;;;;;;10.88;10.18;;;;;;;;;;5038837;28;20031;-64
2022/09/17 13:02:48;;;;;;;11.65;10.95;;;;;;;;;;5068319;28;20542;-64
2022/09/17 13:05:45;;;;;;;10.57;9.98;;;;;;;;;;5040323;28;20402;-65
2022/09/17 13:08:51;;;;;;;11.82;11.13;;;;;;;;;;5009853;28;20042;-65
2022/09/17 13:11:48;;;;;;;10.48;9.80;;;;;;;;;;5037533;28;20106;-65
2022/09/17 13:14:22;;;;;;;13.00;12.25;;;;;;;;;;5037517;28;21008;-65
2022/09/17 13:16:59;;;;;;;16.83;15.93;;;;;;;;;;5037546;28;20037;-65
2022/09/17 13:19:49;;;;;;;20.30;19.20;;;;;;;;;;5037372;28;20037;-64
2022/09/17 13:22:20;;;;;;;14.90;14.07;;;;;;;;;;5038926;28;20514;-65
2022/09/17 13:24:59;;;;;;;17.63;16.63;;;;;;;;;;5037929;28;20629;-64
2022/09/17 13:27:26;;;;;;;18.83;17.83;;;;;;;;;;5040062;28;20168;-60
2022/09/17 13:29:55;;;;;;;15.25;14.38;;;;;;;;;;5038297;28;20082;-60
2022/09/17 13:32:35;;;;;;;12.93;11.52;;;;;;;;;;5070251;28;20538;-60
2022/09/17 13:35:10;;;;;;;17.38;16.38;;;;;;;;;;5036052;28;20041;-60
2022/09/17 13:37:43;;;;;;;15.30;14.43;;;;;;;;;;5036771;28;20037;-60
2022/09/17 13:40:29;;;;;;;16.58;15.60;;;;;;;;;;5036610;28;20068;-60
2022/09/17 13:42:56;;;;;;;13.40;12.60;;;;;;;;;;5037325;28;20104;-60
2022/09/17 13:45:23;;;;;;;9.80;9.20;;;;;;;;;;5037287;28;20036;-60
2022/09/17 13:47:52;;;;;;;9.77;9.18;;;;;;;;;;5035551;28;20120;-60
2022/09/17 13:50:30;;;;;;;9.85;9.25;;;;;;;;;;5037689;28;20071;-59
2022/09/17 13:52:57;;;;;;;13.20;12.40;;;;;;;;;;5038741;28;20491;-60
2022/09/17 13:55:35;;;;;;;12.13;11.43;;;;;;;;;;5037891;28;20029;-60
2022/09/17 13:58:06;;;;;;;10.13;9.52;;;;;;;;;;5033589;28;20037;-60
2022/09/17 14:00:49;;;;;;;18.58;17.58;;;;;;;;;;5038147;28;20095;-59
2022/09/17 14:03:27;;;;;;;14.70;13.90;;;;;;;;;;5040756;28;20024;-59
2022/09/17 14:05:53;;;;;;;12.55;11.82;;;;;;;;;;5037579;28;20128;-59
2022/09/17 14:08:29;;;;;;;15.93;15.02;;;;;;;;;;5034301;28;20041;-60
2022/09/17 14:10:57;;;;;;;12.20;11.50;;;;;;;;;;5036516;28;20031;-60
2022/09/17 14:13:41;;;;;;;13.80;13.00;;;;;;;;;;5035166;28;20033;-60
2022/09/17 14:16:36;;;;;;;12.27;11.55;;;;;;;;;;5035175;28;20522;-60
2022/09/17 14:19:19;;;;;;;16.23;15.32;;;;;;;;;;5037498;28;20041;-60
2022/09/17 14:21:56;;;;;;;12.32;11.63;;;;;;;;;;5035118;28;20455;-59
2022/09/17 14:24:45;;;;;;;12.93;12.17;;;;;;;;;;5034742;28;20056;-60
2022/09/17 14:27:39;;;;;;;12.02;11.32;;;;;;;;;;5036496;28;20300;-60
2022/09/17 14:30:17;;;;;;;9.88;9.27;;;;;;;;;;5034633;28;20048;-59
2022/09/17 14:32:42;;;;;;;13.40;12.60;;;;;;;;;;5035200;28;20041;-59
2022/09/17 14:35:22;;;;;;;15.60;14.70;;;;;;;;;;5032035;28;20037;-59
2022/09/17 14:38:01;;;;;;;14.10;13.30;;;;;;;;;;5034205;28;20029;-59
2022/09/17 14:40:27;;;;;;;16.13;15.23;;;;;;;;;;5036569;28;20115;-59
2022/09/17 14:42:55;;;;;;;12.07;11.38;;;;;;;;;;5034643;28;20039;-59
2022/09/17 14:45:32;;;;;;;11.98;11.18;;;;;;;;;;5035242;28;20028;-58
2022/09/17 14:48:26;;;;;;;9.35;8.75;;;;;;;;;;5032397;28;20037;-59
2022/09/17 14:51:10;;;;;;;8.45;7.95;;;;;;;;;;5037093;28;20025;-59
2022/09/17 14:53:35;;;;;;;10.57;9.68;;;;;;;;;;5034043;28;20306;-59
2022/09/17 14:56:00;;;;;;;11.93;11.23;;;;;;;;;;5034123;28;20496;-59
2022/09/17 14:58:31;;;;;;;9.15;8.55;;;;;;;;;;5036229;28;20025;-59
2022/09/17 15:00:56;;;;;;;8.20;7.70;;;;;;;;;;5036809;28;20033;-59
2022/09/17 15:03:23;;;;;;;8.70;8.10;;;;;;;;;;5037367;28;20375;-59
2022/09/17 15:05:51;;;;;;;9.05;8.45;;;;;;;;;;5034473;28;20421;-59
2022/09/17 15:08:26;;;;;;;8.93;8.30;;;;;;;;;;5032823;28;20112;-59